createdAt,value
2024-01-06T00:00:30.981Z,14.40
2024-01-06T00:03:04.020Z,15.00
2024-01-06T00:05:50.931Z,14.13
2024-01-06T00:08:23.987Z,14.07
2024-01-06T00:11:11.916Z,13.85
2024-01-06T00:13:45.197Z,14.15
2024-01-06T00:16:31.923Z,14.73
2024-01-06T00:19:05.225Z,16.02
2024-01-06T00:21:51.947Z,15.35
2024-01-06T00:24:32.025Z,15.25
2024-01-06T00:27:18.962Z,14.82
2024-01-06T00:29:58.968Z,13.52
2024-01-06T00:32:45.985Z,13.80
2024-01-06T00:35:25.936Z,14.77
2024-01-06T00:38:19.974Z,15.77
2024-01-06T00:41:06.911Z,15.43
2024-01-06T00:43:40.067Z,15.80
2024-01-06T00:46:26.906Z,15.15
2024-01-06T00:49:07.016Z,14.48
2024-01-06T00:52:00.968Z,16.33
2024-01-06T00:54:54.984Z,15.02
2024-01-06T00:57:42.035Z,15.50
2024-01-06T01:00:22.927Z,15.32
2024-01-06T01:03:09.975Z,14.07
2024-01-06T01:05:50.078Z,14.30
2024-01-06T01:08:43.951Z,13.45
2024-01-06T01:11:30.934Z,15.65
2024-01-06T01:14:11.098Z,15.45
2024-01-06T01:17:04.921Z,14.80
2024-01-06T01:19:52.056Z,15.13
2024-01-06T01:22:31.965Z,14.40
2024-01-06T01:25:13.926Z,15.38
2024-01-06T01:28:00.942Z,15.25
2024-01-06T01:30:41.017Z,14.80
2024-01-06T01:33:21.203Z,15.30
2024-01-06T01:36:02.659Z,16.02
2024-01-06T01:38:43.086Z,12.70
2024-01-06T01:41:22.960Z,14.85
2024-01-06T01:44:16.981Z,16.55
2024-01-06T01:47:10.989Z,15.50
2024-01-06T01:49:57.962Z,15.40
2024-01-06T01:52:31.066Z,17.45
2024-01-06T01:55:17.959Z,13.98
2024-01-06T01:57:52.075Z,14.80
2024-01-06T02:00:39.044Z,16.50
2024-01-06T02:03:13.139Z,18.50
2024-01-06T02:05:59.940Z,17.00
2024-01-06T02:08:33.043Z,16.85
2024-01-06T02:11:19.936Z,18.05
2024-01-06T02:13:53.055Z,16.15
2024-01-06T02:16:39.990Z,15.68
2024-01-06T02:19:18.876Z,15.75
2024-01-06T02:22:05.974Z,17.45
2024-01-06T02:24:39.108Z,17.35
2024-01-06T02:27:26.005Z,17.10
2024-01-06T02:30:05.972Z,17.35
2024-01-06T02:32:53.156Z,16.55
2024-01-06T02:35:33.948Z,17.77
2024-01-06T02:38:27.960Z,17.30
2024-01-06T02:41:14.971Z,16.95
2024-01-06T02:43:48.059Z,17.25
2024-01-06T02:46:34.961Z,17.13
2024-01-06T02:49:08.219Z,17.75
2024-01-06T02:51:55.030Z,16.92
2024-01-06T02:54:35.009Z,18.17
2024-01-06T02:57:23.024Z,18.55
2024-01-06T03:00:02.974Z,18.45
2024-01-06T03:02:50.977Z,19.13
2024-01-06T03:05:24.108Z,19.95
2024-01-06T03:08:18.987Z,20.52
2024-01-06T03:11:12.978Z,21.85
2024-01-06T03:14:07.015Z,20.75
2024-01-06T03:16:54.000Z,20.25
2024-01-06T03:19:28.562Z,22.10
2024-01-06T03:22:14.999Z,20.27
2024-01-06T03:24:48.209Z,20.75
2024-01-06T03:27:35.004Z,20.55
2024-01-06T03:30:22.079Z,20.80
2024-01-06T03:33:02.114Z,21.92
2024-01-06T03:35:48.996Z,20.08
2024-01-06T03:38:36.988Z,18.65
2024-01-06T03:41:17.157Z,19.08
2024-01-06T03:43:56.992Z,20.58
2024-01-06T03:46:37.074Z,21.50
2024-01-06T03:49:17.047Z,21.35
2024-01-06T03:51:57.225Z,25.88
2024-01-06T03:54:37.047Z,25.02
2024-01-06T03:57:17.128Z,23.50
2024-01-06T03:59:56.995Z,26.08
2024-01-06T04:02:37.088Z,23.90
2024-01-06T04:05:17.018Z,21.45
2024-01-06T04:07:57.119Z,20.77
2024-01-06T04:10:37.024Z,21.45
2024-01-06T04:13:24.994Z,20.52
2024-01-06T04:16:05.005Z,24.52
2024-01-06T04:18:52.082Z,24.70
2024-01-06T04:21:25.493Z,23.65
2024-01-06T04:24:12.145Z,22.50
2024-01-06T04:26:46.214Z,23.23
2024-01-06T04:29:33.007Z,23.08
2024-01-06T04:32:08.588Z,24.15
2024-01-06T04:34:55.001Z,22.38
2024-01-06T04:37:28.389Z,21.77
2024-01-06T04:40:15.997Z,24.15
2024-01-06T04:43:03.033Z,23.05
2024-01-06T04:45:58.078Z,22.92
2024-01-06T04:48:48.091Z,20.90
2024-01-06T04:51:21.331Z,23.10
2024-01-06T04:54:08.004Z,23.90
2024-01-06T04:56:41.116Z,22.52
2024-01-06T04:59:27.997Z,21.98
2024-01-06T05:02:02.231Z,22.65
2024-01-06T05:04:56.042Z,23.35
2024-01-06T05:07:50.006Z,22.80
2024-01-06T05:10:37.013Z,23.67
2024-01-06T05:13:10.110Z,22.67
2024-01-06T05:15:57.160Z,24.50
2024-01-06T05:18:30.288Z,23.75
2024-01-06T05:21:17.097Z,25.67
2024-01-06T05:23:57.021Z,26.38
2024-01-06T05:26:51.021Z,26.75
2024-01-06T05:29:38.054Z,25.30
2024-01-06T05:32:18.872Z,25.00
2024-01-06T05:34:59.221Z,25.58
2024-01-06T05:37:40.227Z,25.08
2024-01-06T05:40:20.022Z,25.73
2024-01-06T05:43:14.069Z,25.05
2024-01-06T05:46:01.076Z,23.55
2024-01-06T05:48:34.430Z,22.98
2024-01-06T05:51:21.103Z,24.83
2024-01-06T05:53:54.184Z,25.80
2024-01-06T05:56:41.064Z,25.45
2024-01-06T05:59:14.134Z,23.95
2024-01-06T06:02:01.116Z,25.38
2024-01-06T06:04:34.313Z,25.52
2024-01-06T06:07:21.059Z,24.73
2024-01-06T06:10:02.229Z,24.83
2024-01-06T06:12:49.152Z,25.70
2024-01-06T06:15:29.054Z,27.50
2024-01-06T06:18:16.234Z,26.65
2024-01-06T06:20:56.065Z,26.88
2024-01-06T06:23:50.090Z,26.02
2024-01-06T06:26:38.773Z,27.52
2024-01-06T06:29:13.175Z,29.10
2024-01-06T06:32:00.074Z,28.73
2024-01-06T06:34:33.235Z,27.67
2024-01-06T06:37:20.073Z,29.65
2024-01-06T06:40:00.145Z,28.63
2024-01-06T06:42:54.070Z,28.30
2024-01-06T06:45:41.147Z,30.63
2024-01-06T06:48:14.373Z,30.60
2024-01-06T06:51:01.102Z,27.85
2024-01-06T06:53:41.076Z,28.58
2024-01-06T06:56:28.094Z,29.25
2024-01-06T06:59:08.043Z,30.52
2024-01-06T07:01:55.105Z,28.63
2024-01-06T07:04:28.336Z,31.52
2024-01-06T07:07:15.079Z,30.08
2024-01-06T07:09:48.291Z,29.27
2024-01-06T07:12:35.113Z,30.08
2024-01-06T07:15:11.270Z,30.45
2024-01-06T07:17:58.137Z,30.70
2024-01-06T07:20:31.241Z,31.50
2024-01-06T07:23:18.070Z,30.23
2024-01-06T07:25:58.077Z,27.98
2024-01-06T07:28:45.089Z,28.95
2024-01-06T07:31:18.894Z,29.80
2024-01-06T07:34:06.163Z,29.63
2024-01-06T07:36:42.451Z,34.58
2024-01-06T07:39:29.103Z,31.90
2024-01-06T07:42:02.184Z,31.38
2024-01-06T07:44:49.091Z,31.63
2024-01-06T07:47:22.182Z,31.83
2024-01-06T07:50:09.080Z,31.00
2024-01-06T07:52:49.102Z,30.88
2024-01-06T07:55:36.082Z,30.90
2024-01-06T07:58:16.129Z,31.63
2024-01-06T08:01:03.288Z,30.98
2024-01-06T08:03:44.197Z,31.25
2024-01-06T08:06:31.099Z,31.58
2024-01-06T08:09:11.115Z,33.65
2024-01-06T08:12:05.118Z,30.63
2024-01-06T08:14:52.096Z,30.67
2024-01-06T08:17:25.252Z,29.05
2024-01-06T08:20:13.102Z,28.88
2024-01-06T08:22:46.204Z,29.42
2024-01-06T08:25:33.104Z,29.13
2024-01-06T08:28:16.130Z,28.38
2024-01-06T08:31:03.251Z,28.02
2024-01-06T08:33:43.336Z,28.02
2024-01-06T08:36:23.168Z,26.25
2024-01-06T08:39:10.134Z,25.75
2024-01-06T08:41:43.664Z,23.65
2024-01-06T08:44:30.142Z,23.85
2024-01-06T08:47:10.131Z,24.42
2024-01-06T08:49:57.275Z,25.65
2024-01-06T08:52:30.507Z,23.83
2024-01-06T08:55:17.135Z,24.85
2024-01-06T08:57:57.159Z,24.65
2024-01-06T09:00:37.303Z,25.05
2024-01-06T09:03:17.264Z,23.73
2024-01-06T09:05:57.225Z,25.30
2024-01-06T09:08:37.102Z,26.08
2024-01-06T09:11:17.327Z,23.40
2024-01-06T09:14:00.165Z,23.35
2024-01-06T09:16:40.304Z,23.70
2024-01-06T09:19:20.435Z,24.60
2024-01-06T09:22:00.331Z,25.35
2024-01-06T09:24:41.198Z,26.02
2024-01-06T09:27:21.274Z,24.67
2024-01-06T09:30:01.180Z,24.92
2024-01-06T09:32:41.544Z,23.70
2024-01-06T09:35:28.102Z,26.77
2024-01-06T09:38:01.269Z,24.58
2024-01-06T09:40:52.147Z,23.08
2024-01-06T09:43:32.139Z,19.55
2024-01-06T09:46:25.135Z,21.98
2024-01-06T09:48:59.919Z,23.13
2024-01-06T09:51:48.212Z,22.73
2024-01-06T09:54:22.268Z,22.67
2024-01-06T09:57:11.132Z,23.17
2024-01-06T09:59:45.134Z,21.17
2024-01-06T10:02:33.159Z,19.17
2024-01-06T10:05:13.249Z,19.90
2024-01-06T10:08:07.158Z,16.67
2024-01-06T10:10:54.149Z,19.70
2024-01-06T10:13:34.160Z,20.88
2024-01-06T10:16:28.182Z,17.63
2024-01-06T10:19:15.315Z,18.02
2024-01-06T10:21:55.270Z,18.83
2024-01-06T10:24:45.263Z,17.65
2024-01-06T10:27:18.737Z,16.90
2024-01-06T10:30:05.206Z,19.90
2024-01-06T10:32:40.396Z,17.08
2024-01-06T10:35:27.227Z,18.98
2024-01-06T10:38:02.267Z,19.02
2024-01-06T10:41:15.227Z,19.40
2024-01-06T10:43:57.165Z,21.85
2024-01-06T10:46:52.170Z,19.98
2024-01-06T10:49:39.478Z,17.30
2024-01-06T10:52:14.327Z,18.10
2024-01-06T10:55:04.286Z,17.45
2024-01-06T10:57:38.370Z,22.17
2024-01-06T11:00:25.205Z,18.67
2024-01-06T11:03:00.496Z,19.90
2024-01-06T11:05:56.227Z,21.33
2024-01-06T11:08:57.163Z,20.52
2024-01-06T11:11:52.157Z,20.75
2024-01-06T11:14:53.183Z,19.83
2024-01-06T11:18:03.233Z,17.25
2024-01-06T11:20:43.214Z,17.60
2024-01-06T11:23:39.690Z,18.52
2024-01-06T11:26:26.231Z,17.08
2024-01-06T11:28:59.868Z,16.95
2024-01-06T11:31:46.345Z,17.90
2024-01-06T11:34:26.328Z,16.48
2024-01-06T11:37:06.236Z,16.15
2024-01-06T11:39:49.333Z,15.43
2024-01-06T11:42:29.207Z,15.68
2024-01-06T11:45:26.240Z,16.90
2024-01-06T11:48:25.063Z,16.17
2024-01-06T11:51:12.202Z,15.20
2024-01-06T11:53:45.306Z,13.90
2024-01-06T11:56:32.173Z,15.57
2024-01-06T11:59:12.267Z,17.95
2024-01-06T12:02:06.194Z,19.85
2024-01-06T12:05:01.251Z,19.02
2024-01-06T12:07:36.127Z,16.42
2024-01-06T12:10:23.252Z,16.42
2024-01-06T12:13:10.526Z,18.67
2024-01-06T12:16:04.286Z,19.45
2024-01-06T12:18:58.299Z,17.23
2024-01-06T12:21:45.261Z,16.85
2024-01-06T12:24:33.225Z,19.33
2024-01-06T12:27:29.247Z,18.83
2024-01-06T12:30:28.303Z,19.55
2024-01-06T12:33:15.420Z,17.88
2024-01-06T12:35:56.016Z,16.52
2024-01-06T12:38:37.260Z,17.80
2024-01-06T12:41:18.302Z,19.35
2024-01-06T12:43:58.203Z,18.17
2024-01-06T12:46:45.298Z,17.95
2024-01-06T12:49:25.283Z,18.65
2024-01-06T12:52:05.463Z,20.05
2024-01-06T12:54:47.918Z,21.65
2024-01-06T12:57:35.307Z,20.15
2024-01-06T13:00:11.918Z,20.45
2024-01-06T13:02:58.232Z,19.33
2024-01-06T13:05:38.327Z,21.42
2024-01-06T13:08:25.232Z,20.27
2024-01-06T13:11:05.261Z,23.73
2024-01-06T13:13:45.408Z,24.10
2024-01-06T13:16:25.288Z,20.52
2024-01-06T13:19:05.910Z,21.52
2024-01-06T13:21:47.518Z,22.08
2024-01-06T13:24:27.351Z,22.77
2024-01-06T13:27:10.276Z,22.23
2024-01-06T13:29:50.312Z,20.27
2024-01-06T13:32:30.278Z,22.65
2024-01-06T13:35:19.216Z,23.92
2024-01-06T13:38:06.262Z,24.77
2024-01-06T13:40:46.285Z,23.88
2024-01-06T13:43:40.258Z,23.88
2024-01-06T13:46:34.241Z,25.88
2024-01-06T13:49:21.327Z,24.42
2024-01-06T13:52:01.293Z,24.52
2024-01-06T13:54:56.332Z,24.77
2024-01-06T13:57:43.245Z,24.83
2024-01-06T14:00:20.997Z,24.60
2024-01-06T14:03:08.379Z,26.60
2024-01-06T14:05:41.466Z,24.17
2024-01-06T14:08:28.294Z,23.08
2024-01-06T14:11:01.336Z,25.27
2024-01-06T14:13:48.263Z,23.10
2024-01-06T14:16:21.924Z,20.35
2024-01-06T14:19:09.343Z,22.70
2024-01-06T14:21:49.331Z,23.23
2024-01-06T14:24:36.254Z,20.17
2024-01-06T14:27:09.390Z,21.65
2024-01-06T14:29:56.289Z,23.83
2024-01-06T14:32:37.318Z,27.05
2024-01-06T14:35:24.303Z,26.05
2024-01-06T14:38:11.247Z,23.30
2024-01-06T14:40:44.981Z,23.00
2024-01-06T14:43:31.259Z,25.17
2024-01-06T14:46:26.253Z,24.85
2024-01-06T14:49:13.408Z,27.33
2024-01-06T14:51:47.801Z,25.08
2024-01-06T14:54:38.363Z,26.80
2024-01-06T14:57:12.419Z,25.63
2024-01-06T14:59:59.316Z,28.38
2024-01-06T15:02:39.269Z,28.73
2024-01-06T15:05:26.349Z,33.95
2024-01-06T15:07:59.612Z,35.30
2024-01-06T15:10:47.283Z,28.33
2024-01-06T15:13:20.915Z,31.17
2024-01-06T15:16:07.376Z,29.65
2024-01-06T15:18:41.504Z,31.25
2024-01-06T15:21:30.350Z,29.85
2024-01-06T15:24:10.281Z,28.20
2024-01-06T15:27:00.279Z,26.23
2024-01-06T15:29:40.299Z,26.48
2024-01-06T15:32:34.347Z,29.35
2024-01-06T15:35:28.302Z,38.03
2024-01-06T15:38:15.290Z,27.85
2024-01-06T15:40:55.344Z,28.10
2024-01-06T15:43:49.317Z,24.27
2024-01-06T15:46:36.337Z,27.60
2024-01-06T15:49:17.407Z,25.83
2024-01-06T15:52:15.278Z,25.23
2024-01-06T15:55:09.396Z,21.77
2024-01-06T15:57:56.341Z,24.38
2024-01-06T16:00:29.463Z,26.38
2024-01-06T16:03:16.463Z,25.25
2024-01-06T16:05:51.279Z,24.65
2024-01-06T16:08:38.329Z,24.27
2024-01-06T16:11:12.480Z,30.38
2024-01-06T16:13:59.334Z,25.73
2024-01-06T16:16:36.466Z,27.50
2024-01-06T16:19:23.570Z,32.70
2024-01-06T16:22:07.104Z,35.47
2024-01-06T16:25:01.373Z,36.00
2024-01-06T16:27:34.436Z,32.70
2024-01-06T16:30:21.495Z,34.15
2024-01-06T16:33:02.499Z,34.50
2024-01-06T16:35:56.285Z,29.55
2024-01-06T16:38:50.344Z,24.25
2024-01-06T16:41:37.346Z,23.70
2024-01-06T16:44:18.308Z,28.67
2024-01-06T16:47:12.349Z,25.20
2024-01-06T16:49:59.305Z,27.65
2024-01-06T16:52:32.456Z,25.98
2024-01-06T16:55:19.342Z,27.05
2024-01-06T16:57:59.334Z,25.95
2024-01-06T17:00:53.535Z,26.55
2024-01-06T17:03:40.414Z,31.77
2024-01-06T17:06:13.450Z,28.80
2024-01-06T17:09:00.310Z,29.00
2024-01-06T17:11:40.341Z,31.88
2024-01-06T17:14:27.341Z,29.20
2024-01-06T17:17:00.413Z,27.30
2024-01-06T17:19:47.417Z,30.00
2024-01-06T17:22:27.330Z,31.00
2024-01-06T17:25:21.351Z,29.05
2024-01-06T17:28:08.382Z,28.40
2024-01-06T17:30:41.593Z,29.20
2024-01-06T17:33:28.419Z,26.55
2024-01-06T17:36:09.345Z,30.23
2024-01-06T17:38:57.351Z,29.70
2024-01-06T17:41:33.804Z,29.77
2024-01-06T17:44:31.383Z,27.60
2024-01-06T17:47:26.368Z,27.00
2024-01-06T17:50:13.351Z,27.60
2024-01-06T17:52:53.339Z,26.23
2024-01-06T17:55:40.334Z,28.63
2024-01-06T17:58:20.355Z,28.15
2024-01-06T18:01:07.458Z,26.02
2024-01-06T18:03:40.565Z,26.80
2024-01-06T18:06:28.428Z,28.42
2024-01-06T18:09:02.365Z,31.75
2024-01-06T18:11:50.345Z,31.17
2024-01-06T18:14:24.423Z,28.23
2024-01-06T18:17:11.383Z,28.38
2024-01-06T18:19:44.511Z,31.13
2024-01-06T18:22:31.348Z,31.00
2024-01-06T18:25:11.340Z,33.67
2024-01-06T18:28:05.388Z,32.35
2024-01-06T18:31:01.471Z,31.38
2024-01-06T18:33:55.423Z,33.50
2024-01-06T18:36:42.436Z,33.97
2024-01-06T18:39:15.487Z,32.08
2024-01-06T18:42:02.375Z,33.28
2024-01-06T18:44:42.405Z,32.28
2024-01-06T18:47:36.390Z,31.30
2024-01-06T18:50:26.387Z,29.10
2024-01-06T18:53:06.414Z,30.48
2024-01-06T18:55:53.352Z,29.95
2024-01-06T18:58:33.352Z,28.83
2024-01-06T19:01:27.461Z,31.23
2024-01-06T19:04:14.450Z,30.08
2024-01-06T19:06:47.517Z,29.67
2024-01-06T19:09:36.411Z,28.48
2024-01-06T19:12:09.531Z,28.63
2024-01-06T19:14:56.366Z,29.98
2024-01-06T19:17:29.548Z,27.38
2024-01-06T19:20:16.381Z,26.98
2024-01-06T19:23:06.038Z,26.75
2024-01-06T19:25:56.392Z,29.00
2024-01-06T19:28:36.387Z,27.17
2024-01-06T19:31:23.423Z,26.73
2024-01-06T19:34:03.484Z,24.02
2024-01-06T19:36:50.405Z,23.58
2024-01-06T19:39:23.542Z,26.25
2024-01-06T19:42:11.422Z,22.00
2024-01-06T19:45:05.476Z,21.40
2024-01-06T19:47:59.551Z,21.88
2024-01-06T19:50:46.434Z,23.58
2024-01-06T19:53:19.493Z,22.65
2024-01-06T19:56:09.439Z,23.05
2024-01-06T19:58:42.505Z,21.38
2024-01-06T20:01:29.516Z,23.67
2024-01-06T20:04:09.503Z,23.67
2024-01-06T20:06:56.493Z,21.67
2024-01-06T20:09:29.583Z,21.40
2024-01-06T20:12:16.361Z,20.85
2024-01-06T20:14:49.532Z,18.98
2024-01-06T20:17:36.455Z,18.85
2024-01-06T20:20:11.492Z,20.48
2024-01-06T20:22:58.400Z,21.05
2024-01-06T20:25:31.549Z,22.45
2024-01-06T20:28:18.420Z,20.55
2024-01-06T20:30:58.516Z,22.17
2024-01-06T20:33:52.508Z,20.52
2024-01-06T20:36:46.498Z,23.02
2024-01-06T20:39:33.407Z,20.67
2024-01-06T20:42:14.441Z,22.52
2024-01-06T20:45:09.409Z,21.40
2024-01-06T20:48:03.468Z,20.08
2024-01-06T20:50:57.398Z,20.65
2024-01-06T20:53:44.464Z,21.13
2024-01-06T20:56:24.408Z,17.63
2024-01-06T20:59:14.439Z,18.67
2024-01-06T21:01:49.699Z,19.13
2024-01-06T21:04:36.413Z,19.67
2024-01-06T21:07:16.470Z,18.70
2024-01-06T21:10:12.450Z,20.48
2024-01-06T21:12:59.528Z,20.75
2024-01-06T21:15:32.624Z,20.40
2024-01-06T21:18:19.469Z,18.83
2024-01-06T21:20:52.546Z,19.55
2024-01-06T21:23:45.182Z,18.20
2024-01-06T21:26:29.479Z,20.45
2024-01-06T21:29:26.460Z,20.73
2024-01-06T21:32:20.445Z,20.80
2024-01-06T21:35:14.431Z,18.52
2024-01-06T21:38:11.438Z,17.73
2024-01-06T21:40:58.433Z,18.40
2024-01-06T21:43:31.511Z,19.30
2024-01-06T21:46:25.457Z,19.05
2024-01-06T21:49:12.462Z,18.88
2024-01-06T21:51:59.565Z,18.88
2024-01-06T21:54:46.457Z,20.00
2024-01-06T21:57:19.986Z,20.58
2024-01-06T22:00:08.181Z,19.90
2024-01-06T22:02:49.457Z,20.92
2024-01-06T22:05:36.516Z,18.67
2024-01-06T22:08:09.524Z,20.20
2024-01-06T22:10:56.434Z,18.83
2024-01-06T22:13:36.430Z,20.05
2024-01-06T22:16:23.432Z,19.25
2024-01-06T22:19:03.510Z,19.33
2024-01-06T22:21:51.457Z,18.58
2024-01-06T22:24:33.496Z,19.48
2024-01-06T22:27:27.490Z,18.30
2024-01-06T22:30:15.532Z,18.30
2024-01-06T22:32:57.477Z,18.02
2024-01-06T22:35:44.451Z,17.80
2024-01-06T22:38:24.446Z,18.25
2024-01-06T22:41:11.443Z,18.27
2024-01-06T22:43:51.464Z,18.88
2024-01-06T22:46:38.559Z,19.05
2024-01-06T22:49:18.473Z,18.58
2024-01-06T22:51:58.659Z,18.75
2024-01-06T22:54:38.468Z,19.15
2024-01-06T22:57:18.455Z,19.00
2024-01-06T22:59:58.438Z,20.10
2024-01-06T23:02:45.435Z,18.58
2024-01-06T23:05:25.474Z,19.10
2024-01-06T23:08:19.509Z,18.05
2024-01-06T23:11:06.448Z,19.85
2024-01-06T23:13:39.537Z,19.73
2024-01-06T23:16:26.543Z,18.67
2024-01-06T23:19:01.019Z,18.48
2024-01-06T23:21:47.500Z,18.08
2024-01-06T23:24:21.553Z,18.15
2024-01-06T23:27:01.896Z,20.38
2024-01-06T23:29:42.515Z,18.27
2024-01-06T23:32:22.594Z,17.52
2024-01-06T23:35:09.523Z,17.13
2024-01-06T23:37:49.452Z,18.13
2024-01-06T23:40:36.433Z,18.13
2024-01-06T23:43:11.544Z,18.08
2024-01-06T23:46:05.459Z,17.67
2024-01-06T23:48:52.506Z,18.67
2024-01-06T23:51:33.476Z,18.30
2024-01-06T23:54:27.467Z,19.60
2024-01-06T23:57:14.452Z,19.17
2024-01-06T23:59:47.579Z,18.48
